Aérodrome :
LOGIN :

S'inscrire | Disclaimer

   EN    FR    IT 

 










Légende :    VFR   VFR Marginal   IFR   IFR Intensif   IFR Très Intensif
Visi : 
Plafond : 
>= 8 km
>= 3000ft
5 à 8 km
1000 à 3000 ft
1500m à 5 km
500 à 1000 ft
800 à 1500m
200 à 500 ft
< 800m
< 200 ft
Symboles :   Orages  Brouillard  Fortes neiges  Fortes précipitations  Vent > 20 kt
SIGMETs :   Divers  Orages  Givrage  Turbulence  Onde Orograph.  Cendres Volcan.







- Altitude de l'aérodrome : 2096 ft
- Code IATA : AUR
- Voir les cartes d'approche


LFLW - Aurillac

DERNIER METAR :
  • 280730Z AUTO 22011KT 190V250 9999 BKN013 OVC018 05/04 Q1003 BECMG 25018G30KT BKN008 OVC015

METARs EXPIRÉS :
  • 280700Z AUTO 23012KT 9999 OVC015/// ///TCU 05/04 Q1003 BECMG 25018G30KT BKN008 OVC015
  • 280630Z AUTO 23012KT 190V260 7000 RA BKN013/// OVC019/// ///TCU 05/04 Q1003 BECMG 25018G30KT NSW BKN008 OVC015
  • 280600Z AUTO 23013G31KT 200V260 9999 RA OVC010/// ///TCU 05/04 Q1003 BECMG NSW BKN012 OVC030
  • 280530Z AUTO 23010KT 200V260 7000 -RA BKN009/// OVC013/// ///TCU 05/04 Q1004 BECMG BKN012 OVC030
  • 280500Z AUTO 22007KT 200V260 7000 RA OVC010/// ///TCU 05/04 Q1004
  • 280430Z AUTO 23008KT 5000 -RA BR OVC013 05/04 Q1004

TAF AMD TAF LFLW
Valide du 28 à 06h jusqu'au 28 à 15h UTC


280606Z 2806/2815 22012KT 7000 BKN008 OVC015
BECMG 2808/2810 25018G30KT
TEMPO 2810/2815 25025G40KT 3000 RA BKN005 OVC010
Pas de NOTAMs connus pour ce terrain.
2 SIGMETs publiés pour la FIR Bordeaux (LFBB) :
 
Turbulence forte
LFBB SIGMET 2 VALID 280800/281200 LFPW
LFBB BORDEAUX FIR/UIR SEV TURB FCST NW OF LINE N4245 E00000 - N4400 E00245 SFC/FL080 STNR NC=
Turbulence forte
LFBB SIGMET 1 VALID 280400/280800 LFPW
LFBB BORDEAUX FIR/UIR SEV TURB FCST WI N4245 W00100 - N4300 W00145 - N4630 W00130 - N4630 W00045 SFC/FL060 STNR NC=



MET'MAP, la Météo Aéronautique d'un coup d'oeil ! - Copyright ORBIFLY Décembre 2007 - Disclaimer

ORBIFLY MET'MAP TEAM :

Programmation & Développement : Alexandra Zaïnal
Conception & Développement : Baudouin d'Aumeries
Co-Programmation & Développement : Marc-Olivier Méhu
Soutien technique & logistique : Manuel Goepfert

Contact : metmap@orbifly.com




SOURCES & CREDITS :

   NOAA